Terminal Aerodrome Forecast
Issued by NWS

Home | Current Version | Previous Version | Text Only | Print | Product List | Glossary On
Versions: 1 2 3 4 5 6 7 8 9 10 11 12 13 14 15 16 17 18 19 20 21 22 23 24 25 26 27
000
FTAK31 PAFA 220534
TAFAOT
TAF
PAOT 220534Z 2206/2306 33005KT P6SM BKN025 OVC080
      TEMPO 2206/2208 SCT025 OVC080
     FM220800 24005KT P6SM SCT025 SCT070 BKN200
     FM221400 11008KT P6SM SCT050 SCT200=

USA.gov is the U.S. government's official web portal to all federal, state and local government web resources and services.